sensor_id;sensor_type;location;lat;lon;timestamp;P1;durP1;ratioP1;P2;durP2;ratioP2
10571;SDS011;5334;48.928;12.704;2023-11-18T00:00:48;45.27;;;43.27;;
10571;SDS011;5334;48.928;12.704;2023-11-18T00:03:14;49.97;;;47.77;;
10571;SDS011;5334;48.928;12.704;2023-11-18T00:05:40;45.57;;;43.57;;
10571;SDS011;5334;48.928;12.704;2023-11-18T00:08:05;50.13;;;47.93;;
10571;SDS011;5334;48.928;12.704;2023-11-18T00:10:31;47.83;;;45.70;;
10571;SDS011;5334;48.928;12.704;2023-11-18T00:12:57;44.97;;;42.97;;
10571;SDS011;5334;48.928;12.704;2023-11-18T00:15:23;44.40;;;42.43;;
10571;SDS011;5334;48.928;12.704;2023-11-18T00:17:48;46.50;;;44.43;;
10571;SDS011;5334;48.928;12.704;2023-11-18T00:20:14;40.00;;;38.20;;
10571;SDS011;5334;48.928;12.704;2023-11-18T00:22:41;41.97;;;40.13;;
10571;SDS011;5334;48.928;12.704;2023-11-18T00:25:07;40.93;;;39.13;;
10571;SDS011;5334;48.928;12.704;2023-11-18T00:27:34;42.50;;;40.60;;
10571;SDS011;5334;48.928;12.704;2023-11-18T00:30:03;40.53;;;38.73;;
10571;SDS011;5334;48.928;12.704;2023-11-18T00:32:38;44.10;;;42.10;;
10571;SDS011;5334;48.928;12.704;2023-11-18T00:35:04;40.53;;;38.73;;
10571;SDS011;5334;48.928;12.704;2023-11-18T00:37:31;41.93;;;40.03;;
10571;SDS011;5334;48.928;12.704;2023-11-18T00:39:57;42.27;;;40.40;;
10571;SDS011;5334;48.928;12.704;2023-11-18T00:42:22;40.57;;;38.77;;
10571;SDS011;5334;48.928;12.704;2023-11-18T00:44:48;47.43;;;45.33;;
10571;SDS011;5334;48.928;12.704;2023-11-18T00:47:14;46.70;;;44.60;;
10571;SDS011;5334;48.928;12.704;2023-11-18T00:49:39;40.87;;;39.07;;
10571;SDS011;5334;48.928;12.704;2023-11-18T00:52:05;40.90;;;39.10;;
10571;SDS011;5334;48.928;12.704;2023-11-18T00:54:31;43.30;;;41.33;;
10571;SDS011;5334;48.928;12.704;2023-11-18T00:56:57;42.30;;;40.43;;
10571;SDS011;5334;48.928;12.704;2023-11-18T00:59:22;48.03;;;45.87;;
10571;SDS011;5334;48.928;12.704;2023-11-18T01:01:48;34.80;;;33.20;;
10571;SDS011;5334;48.928;12.704;2023-11-18T01:04:14;44.20;;;42.20;;
10571;SDS011;5334;48.928;12.704;2023-11-18T01:06:41;41.03;;;39.23;;
10571;SDS011;5334;48.928;12.704;2023-11-18T01:09:07;39.87;;;38.07;;
10571;SDS011;5334;48.928;12.704;2023-11-18T01:11:34;39.00;;;37.30;;
10571;SDS011;5334;48.928;12.704;2023-11-18T01:14:00;41.43;;;39.60;;
10571;SDS011;5334;48.928;12.704;2023-11-18T01:16:27;40.70;;;38.90;;
10571;SDS011;5334;48.928;12.704;2023-11-18T01:18:53;36.67;;;35.07;;
10571;SDS011;5334;48.928;12.704;2023-11-18T01:21:19;39.67;;;37.87;;
10571;SDS011;5334;48.928;12.704;2023-11-18T01:23:46;41.30;;;39.50;;
10571;SDS011;5334;48.928;12.704;2023-11-18T01:26:13;40.63;;;38.83;;
10571;SDS011;5334;48.928;12.704;2023-11-18T01:28:40;42.13;;;40.23;;
10571;SDS011;5334;48.928;12.704;2023-11-18T01:31:10;40.80;;;39.00;;
10571;SDS011;5334;48.928;12.704;2023-11-18T01:33:36;42.23;;;40.33;;
10571;SDS011;5334;48.928;12.704;2023-11-18T01:36:05;45.63;;;43.63;;
10571;SDS011;5334;48.928;12.704;2023-11-18T01:38:31;42.93;;;41.03;;
10571;SDS011;5334;48.928;12.704;2023-11-18T01:40:57;40.87;;;39.07;;
10571;SDS011;5334;48.928;12.704;2023-11-18T01:43:25;43.37;;;41.47;;
10571;SDS011;5334;48.928;12.704;2023-11-18T01:45:51;46.97;;;44.87;;
10571;SDS011;5334;48.928;12.704;2023-11-18T01:48:18;45.23;;;43.23;;
10571;SDS011;5334;48.928;12.704;2023-11-18T01:50:47;37.17;;;35.57;;
10571;SDS011;5334;48.928;12.704;2023-11-18T01:53:14;42.20;;;40.33;;
10571;SDS011;5334;48.928;12.704;2023-11-18T01:55:40;39.73;;;37.93;;
10571;SDS011;5334;48.928;12.704;2023-11-18T01:58:07;38.80;;;37.10;;
10571;SDS011;5334;48.928;12.704;2023-11-18T02:00:37;46.50;;;44.40;;
10571;SDS011;5334;48.928;12.704;2023-11-18T02:03:11;39.73;;;38.03;;
10571;SDS011;5334;48.928;12.704;2023-11-18T02:05:37;35.60;;;34.00;;
10571;SDS011;5334;48.928;12.704;2023-11-18T02:08:03;35.80;;;34.20;;
10571;SDS011;5334;48.928;12.704;2023-11-18T02:10:32;38.17;;;36.47;;
10571;SDS011;5334;48.928;12.704;2023-11-18T02:13:21;36.80;;;35.20;;
10571;SDS011;5334;48.928;12.704;2023-11-18T02:15:54;36.03;;;34.43;;
10571;SDS011;5334;48.928;12.704;2023-11-18T02:18:28;34.83;;;33.27;;
10571;SDS011;5334;48.928;12.704;2023-11-18T02:20:55;39.53;;;37.77;;
10571;SDS011;5334;48.928;12.704;2023-11-18T02:23:25;36.73;;;35.10;;
10571;SDS011;5334;48.928;12.704;2023-11-18T02:25:54;41.67;;;39.87;;
10571;SDS011;5334;48.928;12.704;2023-11-18T02:28:23;38.10;;;36.43;;
10571;SDS011;5334;48.928;12.704;2023-11-18T02:30:50;36.17;;;34.57;;
10571;SDS011;5334;48.928;12.704;2023-11-18T02:33:32;41.07;;;39.27;;
10571;SDS011;5334;48.928;12.704;2023-11-18T02:36:06;36.90;;;35.30;;
10571;SDS011;5334;48.928;12.704;2023-11-18T02:38:37;36.80;;;35.17;;
10571;SDS011;5334;48.928;12.704;2023-11-18T02:41:10;39.03;;;37.33;;
10571;SDS011;5334;48.928;12.704;2023-11-18T02:43:38;39.80;;;38.00;;
10571;SDS011;5334;48.928;12.704;2023-11-18T02:46:05;60.30;;;56.83;;
10571;SDS011;5334;48.928;12.704;2023-11-18T02:48:32;39.20;;;37.50;;
10571;SDS011;5334;48.928;12.704;2023-11-18T02:50:59;46.07;;;44.07;;
10571;SDS011;5334;48.928;12.704;2023-11-18T02:53:25;41.27;;;39.47;;
10571;SDS011;5334;48.928;12.704;2023-11-18T02:55:51;44.83;;;42.83;;
10571;SDS011;5334;48.928;12.704;2023-11-18T02:58:17;44.97;;;42.97;;
10571;SDS011;5334;48.928;12.704;2023-11-18T03:00:43;43.47;;;41.53;;
10571;SDS011;5334;48.928;12.704;2023-11-18T03:03:10;50.03;;;47.80;;
10571;SDS011;5334;48.928;12.704;2023-11-18T03:05:36;42.47;;;40.57;;
10571;SDS011;5334;48.928;12.704;2023-11-18T03:08:02;48.60;;;46.47;;
10571;SDS011;5334;48.928;12.704;2023-11-18T03:10:31;40.87;;;39.07;;
10571;SDS011;5334;48.928;12.704;2023-11-18T03:13:00;41.00;;;39.20;;
10571;SDS011;5334;48.928;12.704;2023-11-18T03:15:26;41.10;;;39.30;;
10571;SDS011;5334;48.928;12.704;2023-11-18T03:17:52;39.53;;;37.80;;
10571;SDS011;5334;48.928;12.704;2023-11-18T03:20:19;42.67;;;40.77;;
10571;SDS011;5334;48.928;12.704;2023-11-18T03:22:48;42.80;;;40.90;;
10571;SDS011;5334;48.928;12.704;2023-11-18T03:25:15;35.60;;;34.00;;
10571;SDS011;5334;48.928;12.704;2023-11-18T03:27:42;43.30;;;41.30;;
10571;SDS011;5334;48.928;12.704;2023-11-18T03:30:09;41.87;;;39.97;;
10571;SDS011;5334;48.928;12.704;2023-11-18T03:32:36;42.03;;;40.13;;
10571;SDS011;5334;48.928;12.704;2023-11-18T03:35:03;41.07;;;39.27;;
10571;SDS011;5334;48.928;12.704;2023-11-18T03:37:34;47.17;;;45.07;;
10571;SDS011;5334;48.928;12.704;2023-11-18T03:40:00;41.57;;;39.77;;
10571;SDS011;5334;48.928;12.704;2023-11-18T03:42:26;45.07;;;43.07;;
10571;SDS011;5334;48.928;12.704;2023-11-18T03:44:52;42.67;;;40.77;;
10571;SDS011;5334;48.928;12.704;2023-11-18T03:47:18;40.33;;;38.53;;
10571;SDS011;5334;48.928;12.704;2023-11-18T03:49:43;44.17;;;42.20;;
10571;SDS011;5334;48.928;12.704;2023-11-18T03:52:09;45.83;;;43.80;;
10571;SDS011;5334;48.928;12.704;2023-11-18T03:54:35;50.37;;;48.17;;
10571;SDS011;5334;48.928;12.704;2023-11-18T03:57:00;52.70;;;50.33;;
10571;SDS011;5334;48.928;12.704;2023-11-18T03:59:26;44.37;;;42.40;;
10571;SDS011;5334;48.928;12.704;2023-11-18T04:01:52;45.43;;;43.37;;
10571;SDS011;5334;48.928;12.704;2023-11-18T04:04:18;46.10;;;44.03;;
10571;SDS011;5334;48.928;12.704;2023-11-18T04:06:43;43.40;;;41.43;;
10571;SDS011;5334;48.928;12.704;2023-11-18T04:09:11;46.30;;;44.23;;
10571;SDS011;5334;48.928;12.704;2023-11-18T04:11:38;45.20;;;43.20;;
10571;SDS011;5334;48.928;12.704;2023-11-18T04:14:03;46.27;;;44.17;;
10571;SDS011;5334;48.928;12.704;2023-11-18T04:16:29;46.60;;;44.50;;
10571;SDS011;5334;48.928;12.704;2023-11-18T04:18:55;44.80;;;42.80;;
10571;SDS011;5334;48.928;12.704;2023-11-18T04:21:21;47.63;;;45.53;;
10571;SDS011;5334;48.928;12.704;2023-11-18T04:23:47;45.53;;;43.50;;
10571;SDS011;5334;48.928;12.704;2023-11-18T04:26:13;47.37;;;45.27;;
10571;SDS011;5334;48.928;12.704;2023-11-18T04:28:38;45.97;;;43.93;;
10571;SDS011;5334;48.928;12.704;2023-11-18T04:31:04;42.33;;;40.43;;
10571;SDS011;5334;48.928;12.704;2023-11-18T04:33:30;41.00;;;39.20;;
10571;SDS011;5334;48.928;12.704;2023-11-18T04:35:56;40.30;;;38.50;;
10571;SDS011;5334;48.928;12.704;2023-11-18T04:38:22;43.60;;;41.67;;
10571;SDS011;5334;48.928;12.704;2023-11-18T04:40:48;45.43;;;43.43;;
10571;SDS011;5334;48.928;12.704;2023-11-18T04:43:14;42.63;;;40.73;;
10571;SDS011;5334;48.928;12.704;2023-11-18T04:45:41;46.23;;;44.17;;
10571;SDS011;5334;48.928;12.704;2023-11-18T04:48:07;45.43;;;43.43;;
10571;SDS011;5334;48.928;12.704;2023-11-18T04:50:33;39.93;;;38.13;;
10571;SDS011;5334;48.928;12.704;2023-11-18T04:52:59;45.80;;;43.73;;
10571;SDS011;5334;48.928;12.704;2023-11-18T04:55:25;48.97;;;46.80;;
10571;SDS011;5334;48.928;12.704;2023-11-18T04:57:54;48.10;;;45.93;;
10571;SDS011;5334;48.928;12.704;2023-11-18T05:00:20;44.50;;;42.50;;
10571;SDS011;5334;48.928;12.704;2023-11-18T05:02:46;45.57;;;43.53;;
10571;SDS011;5334;48.928;12.704;2023-11-18T05:05:13;39.60;;;37.87;;
10571;SDS011;5334;48.928;12.704;2023-11-18T05:07:42;42.53;;;40.63;;
10571;SDS011;5334;48.928;12.704;2023-11-18T05:10:09;46.80;;;44.70;;
10571;SDS011;5334;48.928;12.704;2023-11-18T05:12:35;48.20;;;46.10;;
10571;SDS011;5334;48.928;12.704;2023-11-18T05:15:02;42.13;;;40.23;;
10571;SDS011;5334;48.928;12.704;2023-11-18T05:17:29;45.37;;;43.37;;
10571;SDS011;5334;48.928;12.704;2023-11-18T05:19:55;44.43;;;42.43;;
10571;SDS011;5334;48.928;12.704;2023-11-18T05:22:21;46.10;;;44.03;;
10571;SDS011;5334;48.928;12.704;2023-11-18T05:24:47;50.57;;;48.33;;
10571;SDS011;5334;48.928;12.704;2023-11-18T05:27:15;46.30;;;44.20;;
10571;SDS011;5334;48.928;12.704;2023-11-18T05:29:42;45.17;;;43.17;;
10571;SDS011;5334;48.928;12.704;2023-11-18T05:32:10;42.60;;;40.70;;
10571;SDS011;5334;48.928;12.704;2023-11-18T05:34:36;45.73;;;43.73;;
10571;SDS011;5334;48.928;12.704;2023-11-18T05:37:02;43.73;;;41.80;;
10571;SDS011;5334;48.928;12.704;2023-11-18T05:39:29;43.73;;;41.73;;
10571;SDS011;5334;48.928;12.704;2023-11-18T05:41:59;46.20;;;44.10;;
10571;SDS011;5334;48.928;12.704;2023-11-18T05:44:25;45.43;;;43.43;;
10571;SDS011;5334;48.928;12.704;2023-11-18T05:47:02;39.23;;;37.43;;
10571;SDS011;5334;48.928;12.704;2023-11-18T05:49:28;43.37;;;41.37;;
10571;SDS011;5334;48.928;12.704;2023-11-18T05:51:54;38.33;;;36.63;;
10571;SDS011;5334;48.928;12.704;2023-11-18T05:54:21;38.87;;;37.17;;
10571;SDS011;5334;48.928;12.704;2023-11-18T05:56:47;36.90;;;35.30;;
10571;SDS011;5334;48.928;12.704;2023-11-18T05:59:12;38.70;;;37.00;;
10571;SDS011;5334;48.928;12.704;2023-11-18T06:01:39;36.70;;;35.10;;
10571;SDS011;5334;48.928;12.704;2023-11-18T06:04:05;44.57;;;42.53;;
10571;SDS011;5334;48.928;12.704;2023-11-18T06:06:33;46.33;;;44.30;;
10571;SDS011;5334;48.928;12.704;2023-11-18T06:08:59;42.60;;;40.70;;
10571;SDS011;5334;48.928;12.704;2023-11-18T06:11:30;42.50;;;40.60;;
10571;SDS011;5334;48.928;12.704;2023-11-18T06:13:57;42.03;;;40.13;;
10571;SDS011;5334;48.928;12.704;2023-11-18T06:16:23;40.43;;;38.63;;
10571;SDS011;5334;48.928;12.704;2023-11-18T06:18:50;40.03;;;38.23;;
10571;SDS011;5334;48.928;12.704;2023-11-18T06:21:21;40.63;;;38.83;;
10571;SDS011;5334;48.928;12.704;2023-11-18T06:23:53;43.50;;;41.50;;
10571;SDS011;5334;48.928;12.704;2023-11-18T06:26:22;39.83;;;38.03;;
10571;SDS011;5334;48.928;12.704;2023-11-18T06:28:51;39.70;;;37.97;;
10571;SDS011;5334;48.928;12.704;2023-11-18T06:31:18;42.50;;;40.60;;
10571;SDS011;5334;48.928;12.704;2023-11-18T06:33:45;35.70;;;34.13;;
10571;SDS011;5334;48.928;12.704;2023-11-18T06:38:42;39.07;;;37.37;;
10571;SDS011;5334;48.928;12.704;2023-11-18T06:41:09;35.73;;;34.13;;
10571;SDS011;5334;48.928;12.704;2023-11-18T06:43:41;36.70;;;35.10;;
10571;SDS011;5334;48.928;12.704;2023-11-18T06:48:53;38.67;;;36.97;;
10571;SDS011;5334;48.928;12.704;2023-11-18T06:51:22;37.20;;;35.60;;
10571;SDS011;5334;48.928;12.704;2023-11-18T06:53:49;43.03;;;41.13;;
10571;SDS011;5334;48.928;12.704;2023-11-18T06:56:16;44.13;;;42.20;;
10571;SDS011;5334;48.928;12.704;2023-11-18T06:58:42;43.87;;;41.97;;
10571;SDS011;5334;48.928;12.704;2023-11-18T07:01:09;43.90;;;41.93;;
10571;SDS011;5334;48.928;12.704;2023-11-18T07:03:38;45.77;;;43.77;;
10571;SDS011;5334;48.928;12.704;2023-11-18T07:06:06;49.47;;;47.27;;
10571;SDS011;5334;48.928;12.704;2023-11-18T07:08:32;41.37;;;39.57;;
10571;SDS011;5334;48.928;12.704;2023-11-18T07:11:00;46.33;;;44.27;;
10571;SDS011;5334;48.928;12.704;2023-11-18T07:13:26;47.10;;;45.00;;
10571;SDS011;5334;48.928;12.704;2023-11-18T07:15:52;43.47;;;41.50;;
10571;SDS011;5334;48.928;12.704;2023-11-18T07:18:25;41.17;;;39.37;;
10571;SDS011;5334;48.928;12.704;2023-11-18T07:20:51;44.30;;;42.30;;
10571;SDS011;5334;48.928;12.704;2023-11-18T07:23:20;46.53;;;44.43;;
10571;SDS011;5334;48.928;12.704;2023-11-18T07:25:46;48.53;;;46.40;;
10571;SDS011;5334;48.928;12.704;2023-11-18T07:28:12;43.30;;;41.40;;
10571;SDS011;5334;48.928;12.704;2023-11-18T07:30:40;1999.90;;;999.90;;
10571;SDS011;5334;48.928;12.704;2023-11-18T07:33:21;1999.90;;;999.90;;
10571;SDS011;5334;48.928;12.704;2023-11-18T07:35:48;1999.90;;;999.90;;
10571;SDS011;5334;48.928;12.704;2023-11-18T07:38:14;1999.90;;;999.90;;
10571;SDS011;5334;48.928;12.704;2023-11-18T07:40:41;1999.90;;;999.90;;
10571;SDS011;5334;48.928;12.704;2023-11-18T07:43:13;47.43;;;45.33;;
10571;SDS011;5334;48.928;12.704;2023-11-18T07:45:41;51.87;;;49.53;;
10571;SDS011;5334;48.928;12.704;2023-11-18T07:48:10;47.67;;;45.47;;
10571;SDS011;5334;48.928;12.704;2023-11-18T07:50:42;47.87;;;45.73;;
10571;SDS011;5334;48.928;12.704;2023-11-18T07:53:09;1999.90;;;999.90;;
10571;SDS011;5334;48.928;12.704;2023-11-18T07:55:36;1999.90;;;999.90;;
10571;SDS011;5334;48.928;12.704;2023-11-18T07:58:08;1999.90;;;999.90;;
10571;SDS011;5334;48.928;12.704;2023-11-18T08:00:38;1999.90;;;999.90;;
10571;SDS011;5334;48.928;12.704;2023-11-18T08:03:07;1999.90;;;999.90;;
10571;SDS011;5334;48.928;12.704;2023-11-18T08:05:40;1999.90;;;999.90;;
10571;SDS011;5334;48.928;12.704;2023-11-18T08:08:08;1999.90;;;999.90;;
10571;SDS011;5334;48.928;12.704;2023-11-18T08:10:38;1999.90;;;999.90;;
10571;SDS011;5334;48.928;12.704;2023-11-18T08:13:05;1999.90;;;999.90;;
10571;SDS011;5334;48.928;12.704;2023-11-18T08:15:34;1999.90;;;999.90;;
10571;SDS011;5334;48.928;12.704;2023-11-18T08:18:03;1999.90;;;999.90;;
10571;SDS011;5334;48.928;12.704;2023-11-18T08:20:29;1999.90;;;999.90;;
10571;SDS011;5334;48.928;12.704;2023-11-18T08:22:55;1999.90;;;999.90;;
10571;SDS011;5334;48.928;12.704;2023-11-18T08:25:21;1999.90;;;999.90;;
10571;SDS011;5334;48.928;12.704;2023-11-18T08:27:48;1999.90;;;999.90;;
10571;SDS011;5334;48.928;12.704;2023-11-18T08:30:14;1999.90;;;999.90;;
10571;SDS011;5334;48.928;12.704;2023-11-18T08:32:43;1999.90;;;999.90;;
10571;SDS011;5334;48.928;12.704;2023-11-18T08:35:11;1999.90;;;999.90;;
10571;SDS011;5334;48.928;12.704;2023-11-18T08:37:44;1999.90;;;999.90;;
10571;SDS011;5334;48.928;12.704;2023-11-18T08:40:12;1999.90;;;999.90;;
10571;SDS011;5334;48.928;12.704;2023-11-18T08:42:50;1999.90;;;999.90;;
10571;SDS011;5334;48.928;12.704;2023-11-18T08:45:32;1999.90;;;999.90;;
10571;SDS011;5334;48.928;12.704;2023-11-18T08:48:02;1999.90;;;999.90;;
10571;SDS011;5334;48.928;12.704;2023-11-18T08:50:33;1999.90;;;999.90;;
10571;SDS011;5334;48.928;12.704;2023-11-18T08:53:05;1999.90;;;999.90;;
10571;SDS011;5334;48.928;12.704;2023-11-18T08:55:35;1999.90;;;999.90;;
10571;SDS011;5334;48.928;12.704;2023-11-18T08:58:08;1999.90;;;999.90;;
10571;SDS011;5334;48.928;12.704;2023-11-18T09:00:59;1999.90;;;999.90;;
10571;SDS011;5334;48.928;12.704;2023-11-18T09:03:40;1999.90;;;999.90;;
10571;SDS011;5334;48.928;12.704;2023-11-18T09:06:16;1999.90;;;999.90;;
10571;SDS011;5334;48.928;12.704;2023-11-18T09:08:48;1999.90;;;999.90;;
10571;SDS011;5334;48.928;12.704;2023-11-18T09:11:21;1999.90;;;999.90;;
10571;SDS011;5334;48.928;12.704;2023-11-18T09:13:48;1999.90;;;999.90;;
10571;SDS011;5334;48.928;12.704;2023-11-18T09:16:21;1999.90;;;999.90;;
10571;SDS011;5334;48.928;12.704;2023-11-18T09:18:50;1999.90;;;999.90;;
10571;SDS011;5334;48.928;12.704;2023-11-18T09:21:16;1999.90;;;999.90;;
10571;SDS011;5334;48.928;12.704;2023-11-18T09:23:50;1999.90;;;999.90;;
10571;SDS011;5334;48.928;12.704;2023-11-18T09:26:18;1999.90;;;999.90;;
10571;SDS011;5334;48.928;12.704;2023-11-18T09:28:47;1999.90;;;999.90;;
10571;SDS011;5334;48.928;12.704;2023-11-18T09:31:15;1999.90;;;999.90;;
10571;SDS011;5334;48.928;12.704;2023-11-18T09:33:42;1999.90;;;999.90;;
10571;SDS011;5334;48.928;12.704;2023-11-18T09:36:17;1999.90;;;999.90;;
10571;SDS011;5334;48.928;12.704;2023-11-18T09:38:43;1999.90;;;999.90;;
10571;SDS011;5334;48.928;12.704;2023-11-18T09:41:11;1999.90;;;999.90;;
10571;SDS011;5334;48.928;12.704;2023-11-18T09:43:45;1999.90;;;999.90;;
10571;SDS011;5334;48.928;12.704;2023-11-18T09:46:15;1999.90;;;999.90;;
10571;SDS011;5334;48.928;12.704;2023-11-18T09:48:49;1999.90;;;999.90;;
10571;SDS011;5334;48.928;12.704;2023-11-18T09:51:24;1999.90;;;999.90;;
10571;SDS011;5334;48.928;12.704;2023-11-18T09:53:58;1999.90;;;999.90;;
10571;SDS011;5334;48.928;12.704;2023-11-18T09:59:16;1999.90;;;999.90;;
10571;SDS011;5334;48.928;12.704;2023-11-18T10:01:53;1999.90;;;999.90;;
10571;SDS011;5334;48.928;12.704;2023-11-18T10:04:22;1999.90;;;999.90;;
10571;SDS011;5334;48.928;12.704;2023-11-18T10:06:55;1999.90;;;999.90;;
10571;SDS011;5334;48.928;12.704;2023-11-18T10:09:23;1999.90;;;999.90;;
10571;SDS011;5334;48.928;12.704;2023-11-18T10:12:04;1999.90;;;999.90;;
10571;SDS011;5334;48.928;12.704;2023-11-18T10:14:33;1999.90;;;999.90;;
10571;SDS011;5334;48.928;12.704;2023-11-18T10:17:04;1999.90;;;999.90;;
10571;SDS011;5334;48.928;12.704;2023-11-18T10:22:22;1999.90;;;999.90;;
10571;SDS011;5334;48.928;12.704;2023-11-18T10:24:49;1999.90;;;999.90;;
10571;SDS011;5334;48.928;12.704;2023-11-18T10:27:19;1999.90;;;999.90;;
10571;SDS011;5334;48.928;12.704;2023-11-18T10:30:03;1999.90;;;999.90;;
10571;SDS011;5334;48.928;12.704;2023-11-18T10:32:31;1999.90;;;999.90;;
10571;SDS011;5334;48.928;12.704;2023-11-18T10:35:00;1999.90;;;999.90;;
10571;SDS011;5334;48.928;12.704;2023-11-18T10:37:30;1999.90;;;999.90;;
10571;SDS011;5334;48.928;12.704;2023-11-18T10:39:56;1999.90;;;999.90;;
10571;SDS011;5334;48.928;12.704;2023-11-18T10:42:26;1999.90;;;999.90;;
10571;SDS011;5334;48.928;12.704;2023-11-18T10:44:58;1999.90;;;999.90;;
10571;SDS011;5334;48.928;12.704;2023-11-18T10:47:26;1999.90;;;999.90;;
10571;SDS011;5334;48.928;12.704;2023-11-18T10:49:54;1999.90;;;999.90;;
10571;SDS011;5334;48.928;12.704;2023-11-18T10:52:26;1999.90;;;999.90;;
10571;SDS011;5334;48.928;12.704;2023-11-18T10:54:55;1999.90;;;999.90;;
10571;SDS011;5334;48.928;12.704;2023-11-18T10:57:21;1999.90;;;999.90;;
10571;SDS011;5334;48.928;12.704;2023-11-18T11:00:00;1999.90;;;999.90;;
10571;SDS011;5334;48.928;12.704;2023-11-18T11:02:44;1999.90;;;999.90;;
10571;SDS011;5334;48.928;12.704;2023-11-18T11:05:11;1999.90;;;999.90;;
10571;SDS011;5334;48.928;12.704;2023-11-18T11:07:52;1999.90;;;999.90;;
10571;SDS011;5334;48.928;12.704;2023-11-18T11:10:20;1999.90;;;999.90;;
10571;SDS011;5334;48.928;12.704;2023-11-18T11:12:53;1999.90;;;999.90;;
10571;SDS011;5334;48.928;12.704;2023-11-18T11:15:22;1999.90;;;999.90;;
10571;SDS011;5334;48.928;12.704;2023-11-18T11:17:54;1999.90;;;999.90;;
10571;SDS011;5334;48.928;12.704;2023-11-18T11:20:27;1999.90;;;999.90;;
10571;SDS011;5334;48.928;12.704;2023-11-18T11:25:33;1999.90;;;999.90;;
10571;SDS011;5334;48.928;12.704;2023-11-18T11:28:16;1999.90;;;999.90;;
10571;SDS011;5334;48.928;12.704;2023-11-18T11:30:58;1999.90;;;999.90;;
10571;SDS011;5334;48.928;12.704;2023-11-18T11:33:39;1999.90;;;999.90;;
10571;SDS011;5334;48.928;12.704;2023-11-18T11:36:12;1999.90;;;999.90;;
10571;SDS011;5334;48.928;12.704;2023-11-18T11:38:47;1999.90;;;999.90;;
10571;SDS011;5334;48.928;12.704;2023-11-18T11:41:17;1999.90;;;999.90;;
10571;SDS011;5334;48.928;12.704;2023-11-18T11:43:51;1999.90;;;999.90;;
10571;SDS011;5334;48.928;12.704;2023-11-18T11:46:23;1999.90;;;999.90;;
10571;SDS011;5334;48.928;12.704;2023-11-18T11:48:52;1999.90;;;999.90;;
10571;SDS011;5334;48.928;12.704;2023-11-18T11:54:27;1999.90;;;999.90;;
10571;SDS011;5334;48.928;12.704;2023-11-18T11:56:57;1999.90;;;999.90;;
10571;SDS011;5334;48.928;12.704;2023-11-18T12:02:10;1999.90;;;999.90;;
10571;SDS011;5334;48.928;12.704;2023-11-18T12:04:36;1999.90;;;999.90;;
10571;SDS011;5334;48.928;12.704;2023-11-18T12:07:07;1999.90;;;999.90;;
10571;SDS011;5334;48.928;12.704;2023-11-18T12:09:34;1999.90;;;999.90;;
10571;SDS011;5334;48.928;12.704;2023-11-18T12:12:04;1999.90;;;999.90;;
10571;SDS011;5334;48.928;12.704;2023-11-18T12:14:49;1999.90;;;999.90;;
10571;SDS011;5334;48.928;12.704;2023-11-18T12:17:17;1999.90;;;999.90;;
10571;SDS011;5334;48.928;12.704;2023-11-18T12:19:47;1999.90;;;999.90;;
10571;SDS011;5334;48.928;12.704;2023-11-18T12:27:45;1999.90;;;999.90;;
10571;SDS011;5334;48.928;12.704;2023-11-18T12:33:00;1999.90;;;999.90;;
10571;SDS011;5334;48.928;12.704;2023-11-18T12:35:37;1999.90;;;999.90;;
10571;SDS011;5334;48.928;12.704;2023-11-18T12:38:36;1999.90;;;999.90;;
10571;SDS011;5334;48.928;12.704;2023-11-18T12:44:14;1999.90;;;999.90;;
10571;SDS011;5334;48.928;12.704;2023-11-18T12:49:36;1999.90;;;999.90;;
10571;SDS011;5334;48.928;12.704;2023-11-18T12:52:06;1999.90;;;999.90;;
10571;SDS011;5334;48.928;12.704;2023-11-18T12:54:33;1999.90;;;999.90;;
10571;SDS011;5334;48.928;12.704;2023-11-18T12:57:03;1999.90;;;999.90;;
10571;SDS011;5334;48.928;12.704;2023-11-18T12:59:34;1999.90;;;999.90;;
10571;SDS011;5334;48.928;12.704;2023-11-18T13:02:11;1999.90;;;999.90;;
10571;SDS011;5334;48.928;12.704;2023-11-18T13:04:48;1999.90;;;999.90;;
10571;SDS011;5334;48.928;12.704;2023-11-18T13:07:15;1999.90;;;999.90;;
10571;SDS011;5334;48.928;12.704;2023-11-18T13:09:45;1999.90;;;999.90;;
10571;SDS011;5334;48.928;12.704;2023-11-18T13:12:12;1999.90;;;999.90;;
10571;SDS011;5334;48.928;12.704;2023-11-18T13:14:40;1999.90;;;999.90;;
10571;SDS011;5334;48.928;12.704;2023-11-18T13:17:10;1999.90;;;999.90;;
10571;SDS011;5334;48.928;12.704;2023-11-18T13:19:37;1999.90;;;999.90;;
10571;SDS011;5334;48.928;12.704;2023-11-18T13:22:05;1999.90;;;999.90;;
10571;SDS011;5334;48.928;12.704;2023-11-18T13:24:35;1999.90;;;999.90;;
10571;SDS011;5334;48.928;12.704;2023-11-18T13:27:04;1999.90;;;999.90;;
10571;SDS011;5334;48.928;12.704;2023-11-18T13:29:32;1999.90;;;999.90;;
10571;SDS011;5334;48.928;12.704;2023-11-18T13:32:00;1999.90;;;999.90;;
10571;SDS011;5334;48.928;12.704;2023-11-18T13:34:33;1999.90;;;999.90;;
10571;SDS011;5334;48.928;12.704;2023-11-18T13:37:02;1999.90;;;999.90;;
10571;SDS011;5334;48.928;12.704;2023-11-18T13:39:29;1999.90;;;999.90;;
10571;SDS011;5334;48.928;12.704;2023-11-18T13:41:56;1999.90;;;999.90;;
10571;SDS011;5334;48.928;12.704;2023-11-18T13:44:38;1999.90;;;999.90;;
10571;SDS011;5334;48.928;12.704;2023-11-18T13:47:04;1999.90;;;999.90;;
10571;SDS011;5334;48.928;12.704;2023-11-18T13:49:36;1999.90;;;999.90;;
10571;SDS011;5334;48.928;12.704;2023-11-18T13:52:05;1999.90;;;999.90;;
10571;SDS011;5334;48.928;12.704;2023-11-18T13:54:34;1999.90;;;999.90;;
10571;SDS011;5334;48.928;12.704;2023-11-18T13:57:00;1999.90;;;999.90;;
10571;SDS011;5334;48.928;12.704;2023-11-18T13:59:28;1999.90;;;999.90;;
10571;SDS011;5334;48.928;12.704;2023-11-18T14:01:54;1999.90;;;999.90;;
10571;SDS011;5334;48.928;12.704;2023-11-18T14:04:23;1999.90;;;999.90;;
10571;SDS011;5334;48.928;12.704;2023-11-18T14:07:02;1999.90;;;999.90;;
10571;SDS011;5334;48.928;12.704;2023-11-18T14:09:37;1999.90;;;999.90;;
10571;SDS011;5334;48.928;12.704;2023-11-18T14:12:06;1999.90;;;999.90;;
10571;SDS011;5334;48.928;12.704;2023-11-18T14:14:35;1999.90;;;999.90;;
10571;SDS011;5334;48.928;12.704;2023-11-18T14:17:02;1999.90;;;999.90;;
10571;SDS011;5334;48.928;12.704;2023-11-18T14:19:28;1999.90;;;999.90;;
10571;SDS011;5334;48.928;12.704;2023-11-18T14:21:54;1999.90;;;999.90;;
10571;SDS011;5334;48.928;12.704;2023-11-18T14:24:21;1999.90;;;999.90;;
10571;SDS011;5334;48.928;12.704;2023-11-18T14:26:53;1999.90;;;999.90;;
10571;SDS011;5334;48.928;12.704;2023-11-18T14:29:19;1999.90;;;999.90;;
10571;SDS011;5334;48.928;12.704;2023-11-18T14:31:45;1999.90;;;999.90;;
10571;SDS011;5334;48.928;12.704;2023-11-18T14:34:11;1999.90;;;999.90;;
10571;SDS011;5334;48.928;12.704;2023-11-18T14:36:37;1999.90;;;999.90;;
10571;SDS011;5334;48.928;12.704;2023-11-18T14:39:03;1999.90;;;999.90;;
10571;SDS011;5334;48.928;12.704;2023-11-18T14:41:31;1999.90;;;999.90;;
10571;SDS011;5334;48.928;12.704;2023-11-18T14:43:57;1999.90;;;999.90;;
10571;SDS011;5334;48.928;12.704;2023-11-18T14:46:23;1999.90;;;999.90;;